Time;durP1;ratioP1;P1;durP2;ratioP2;P2;SDS_P1;SDS_P2;PMS_P1;PMS_P2;Temp;Humidity;BMP_temperature;BMP_pressure;BME280_temperature;BME280_humidity;BME280_pressure;Samples;Min_cycle;Max_cycle;Signal;HPM_P1;HPM_P2
2023/08/21 00:01:33;;;;;;;19.65;17.60;;;;;;;25.34;64.45;99568.34;4349324;33;33492;-83
2023/08/21 00:04:00;;;;;;;17.83;16.00;;;;;;;25.24;64.86;99562.59;4349615;32;34093;-84
2023/08/21 00:06:28;;;;;;;21.27;17.42;;;;;;;25.28;64.68;99568.63;4353686;32;35166;-83
2023/08/21 00:08:55;;;;;;;22.23;16.55;;;;;;;25.32;64.57;99563.12;4346927;32;34750;-82
2023/08/21 00:11:23;;;;;;;18.27;16.37;;;;;;;25.33;64.52;99562.19;4349328;32;33705;-82
2023/08/21 00:13:51;;;;;;;21.23;16.33;;;;;;;25.28;64.50;99560.66;4359947;32;34660;-86
2023/08/21 00:16:18;;;;;;;19.17;17.17;;;;;;;25.27;64.36;99566.87;4347894;32;36488;-91
2023/08/21 00:18:47;;;;;;;18.23;16.45;;;;;;;25.21;64.65;99571.53;4346687;33;33575;-83
2023/08/21 00:21:14;;;;;;;19.98;17.30;;;;;;;25.14;64.89;99570.03;4346724;33;33454;-88
2023/08/21 00:23:41;;;;;;;18.67;16.87;;;;;;;25.10;64.97;99560.47;4359800;32;34822;-83
2023/08/21 00:26:10;;;;;;;18.40;16.42;;;;;;;25.10;65.09;99564.94;4368379;32;34288;-83
2023/08/21 00:28:38;;;;;;;19.25;17.25;;;;;;;25.07;65.16;99560.56;4369373;32;34434;-90
2023/08/21 00:31:06;;;;;;;18.92;17.02;;;;;;;25.15;64.68;99563.81;4346527;33;33274;-83
2023/08/21 00:33:34;;;;;;;18.92;16.92;;;;;;;25.19;64.49;99565.44;4358704;32;34804;-84
2023/08/21 00:36:01;;;;;;;19.80;17.12;;;;;;;25.05;65.12;99564.22;4354490;32;34001;-83
2023/08/21 00:38:29;;;;;;;20.77;18.70;;;;;;;24.81;65.95;99566.03;4355652;32;33974;-84
2023/08/21 00:40:57;;;;;;;20.92;16.75;;;;;;;24.85;65.82;99575.59;4348623;32;33404;-85
2023/08/21 00:43:26;;;;;;;19.23;17.08;;;;;;;24.93;65.47;99573.53;4346447;33;33442;-84
2023/08/21 00:45:53;;;;;;;19.50;17.33;;;;;;;25.09;64.64;99569.34;4351999;32;33044;-95
2023/08/21 00:48:24;;;;;;;19.10;16.90;;;;;;;24.88;65.44;99575.50;4354563;32;33933;-85
2023/08/21 00:50:52;;;;;;;19.35;17.35;;;;;;;24.96;64.95;99578.69;4351486;32;33748;-84
2023/08/21 00:53:21;;;;;;;19.00;17.10;;;;;;;24.90;65.28;99574.53;4346316;32;33858;-88
2023/08/21 00:55:49;;;;;;;20.08;18.02;;;;;;;24.84;65.53;99579.19;4345254;32;35030;-85
2023/08/21 00:58:17;;;;;;;19.20;17.12;;;;;;;24.84;65.50;99584.50;4353999;32;34612;-85
2023/08/21 01:00:49;;;;;;;19.10;17.05;;;;;;;24.89;65.17;99577.22;4352669;32;33016;-85
2023/08/21 01:03:19;;;;;;;20.95;17.30;;;;;;;24.96;64.87;99574.28;4348370;32;34877;-84
2023/08/21 01:05:46;;;;;;;19.42;17.40;;;;;;;24.92;65.10;99577.97;4353750;32;34825;-94
2023/08/21 01:08:32;;;;;;;19.15;17.25;;;;;;;24.86;65.35;99577.34;4357149;32;33326;-84
2023/08/21 01:11:08;;;;;;;19.37;17.45;;;;;;;24.90;65.44;99573.66;4361135;32;34369;-85
2023/08/21 01:13:48;;;;;;;19.55;17.15;;;;;;;24.88;65.37;99575.50;4349841;32;34167;-96
2023/08/21 01:16:16;;;;;;;19.02;17.23;;;;;;;24.97;64.68;99575.16;4345408;33;35008;-85
2023/08/21 01:18:44;;;;;;;20.45;18.37;;;;;;;24.88;65.16;99575.50;4346167;33;33556;-85
2023/08/21 01:21:12;;;;;;;20.50;17.85;;;;;;;24.79;65.63;99581.16;4367285;32;33633;-86
2023/08/21 01:23:42;;;;;;;19.37;17.25;;;;;;;24.68;66.19;99577.13;4355632;32;33808;-95
2023/08/21 01:26:09;;;;;;;19.77;16.67;;;;;;;24.78;65.90;99579.44;4355743;32;34186;-84
2023/08/21 01:28:37;;;;;;;19.52;17.70;;;;;;;24.66;65.91;99580.75;4346002;33;34718;-83
2023/08/21 01:31:40;;;;;;;19.75;17.85;;;;;;;24.65;65.94;99585.19;4350298;32;33385;-84
2023/08/21 01:34:10;;;;;;;19.12;17.10;;;;;;;24.73;65.43;99585.75;4333982;32;34076;-86
2023/08/21 01:36:39;;;;;;;18.60;16.65;;;;;;;24.74;65.35;99576.91;4345407;33;34008;-85
2023/08/21 01:39:07;;;;;;;20.08;17.37;;;;;;;24.71;65.44;99578.81;4349222;32;33998;-84
2023/08/21 01:41:34;;;;;;;19.48;17.17;;;;;;;24.68;65.49;99574.47;4359415;32;32698;-82
2023/08/21 01:44:02;;;;;;;18.60;16.70;;;;;;;24.72;65.34;99588.50;4349493;32;34791;-83
2023/08/21 01:46:30;;;;;;;18.42;16.45;;;;;;;24.68;65.66;99585.09;4360548;32;34318;-82
2023/08/21 01:48:57;;;;;;;19.45;17.55;;;;;;;24.68;65.70;99587.75;4358800;32;33645;-84
2023/08/21 01:51:25;;;;;;;18.77;16.80;;;;;;;24.65;65.57;99590.50;4346139;32;33629;-87
2023/08/21 01:53:53;;;;;;;18.45;16.48;;;;;;;24.69;65.28;99586.81;4345871;33;34275;-84
2023/08/21 01:56:20;;;;;;;18.10;16.25;;;;;;;24.66;65.35;99591.34;4347014;32;34901;-84
2023/08/21 01:58:48;;;;;;;17.85;16.05;;;;;;;24.67;65.23;99591.31;4358239;32;33666;-84
2023/08/21 02:01:17;;;;;;;16.60;15.00;;;;;;;24.58;65.49;99594.31;4346285;33;34188;-83
2023/08/21 02:03:45;;;;;;;17.20;15.45;;;;;;;24.61;65.47;99596.84;4359467;32;33792;-89
2023/08/21 02:06:13;;;;;;;16.45;14.63;;;;;;;24.56;65.58;99595.31;4358730;32;34716;-85
2023/08/21 02:08:42;;;;;;;16.73;14.90;;;;;;;24.51;65.35;99596.34;4345747;33;33715;-85
2023/08/21 02:11:10;;;;;;;16.10;14.50;;;;;;;24.52;65.29;99599.84;4350761;32;33470;-85
2023/08/21 02:13:37;;;;;;;16.58;14.98;;;;;;;24.48;65.43;99598.25;4352892;33;33741;-84
2023/08/21 02:16:05;;;;;;;16.85;15.05;;;;;;;24.50;65.11;99596.37;4352456;33;34702;-84
2023/08/21 02:18:33;;;;;;;21.33;15.98;;;;;;;24.38;65.65;99597.69;4358005;32;35228;-84
2023/08/21 02:21:01;;;;;;;17.95;15.73;;;;;;;24.39;65.61;99599.44;4350576;33;34433;-91
2023/08/21 02:23:29;;;;;;;17.17;14.55;;;;;;;24.35;65.84;99594.28;4346282;33;34120;-94
2023/08/21 02:25:58;;;;;;;19.65;16.25;;;;;;;24.44;65.51;99591.34;4344975;33;33986;-95
2023/08/21 02:28:25;;;;;;;17.55;15.75;;;;;;;24.46;65.04;99584.16;4345001;32;34365;-84
2023/08/21 02:30:53;;;;;;;21.33;15.90;;;;;;;24.32;65.62;99591.72;4347728;32;34275;-89
2023/08/21 02:33:21;;;;;;;19.77;15.82;;;;;;;24.41;65.37;99594.94;4351987;32;34032;-85
2023/08/21 02:35:48;;;;;;;17.02;15.02;;;;;;;23.82;67.73;99591.75;4359568;32;33845;-84
2023/08/21 02:38:16;;;;;;;16.58;14.95;;;;;;;24.20;66.54;99590.41;4359021;32;34058;-84
2023/08/21 02:40:44;;;;;;;17.80;15.63;;;;;;;24.28;66.07;99591.88;4351495;32;33430;-83
2023/08/21 02:43:11;;;;;;;16.55;14.87;;;;;;;24.17;66.30;99595.78;4351213;32;33647;-93
2023/08/21 02:45:38;;;;;;;17.25;15.45;;;;;;;24.23;66.03;99593.78;4354464;32;34175;-84
2023/08/21 02:48:06;;;;;;;17.80;15.98;;;;;;;24.15;66.26;99585.28;4345566;33;33622;-84
2023/08/21 02:50:34;;;;;;;19.52;17.17;;;;;;;24.15;66.30;99590.56;4347838;32;33518;-84
2023/08/21 02:53:01;;;;;;;18.10;16.45;;;;;;;23.53;68.87;99596.25;4355381;32;34118;-85
2023/08/21 02:55:29;;;;;;;18.92;16.55;;;;;;;24.02;66.91;99595.44;4351291;32;34281;-83
2023/08/21 02:57:57;;;;;;;18.05;16.25;;;;;;;24.07;66.51;99595.28;4356615;32;34301;-84
2023/08/21 03:00:24;;;;;;;17.92;16.12;;;;;;;24.23;65.82;99587.63;4346838;32;33522;-84
2023/08/21 03:02:52;;;;;;;18.20;16.10;;;;;;;23.99;66.60;99586.75;4348769;32;33140;-96
2023/08/21 03:05:20;;;;;;;20.42;17.48;;;;;;;23.98;66.65;99587.63;4348611;32;34009;-83
2023/08/21 03:07:47;;;;;;;21.27;16.33;;;;;;;24.02;66.40;99592.81;4345692;33;34921;-93
2023/08/21 03:10:15;;;;;;;17.98;16.10;;;;;;;24.02;66.54;99590.16;4345518;33;33182;-83
2023/08/21 03:12:42;;;;;;;19.17;17.23;;;;;;;24.06;66.39;99585.62;4348650;33;35187;-96
2023/08/21 03:15:10;;;;;;;18.87;17.08;;;;;;;24.00;66.56;99581.37;4346925;33;33836;-84
2023/08/21 03:17:38;;;;;;;19.30;17.20;;;;;;;23.98;66.76;99582.34;4347950;33;34954;-84
2023/08/21 03:20:07;;;;;;;18.77;16.87;;;;;;;23.92;66.79;99585.22;4347254;33;33643;-84
2023/08/21 03:22:34;;;;;;;17.98;15.75;;;;;;;24.00;66.49;99586.69;4350747;33;34163;-96
2023/08/21 03:25:03;;;;;;;19.10;16.08;;;;;;;23.99;66.48;99590.25;4352730;33;35040;-90
2023/08/21 03:27:31;;;;;;;17.20;15.35;;;;;;;24.03;66.30;99593.66;4353462;33;34094;-96
2023/08/21 03:30:00;;;;;;;19.60;17.48;;;;;;;23.90;66.96;99600.28;4350448;33;33788;-96
2023/08/21 03:32:30;;;;;;;18.65;16.10;;;;;;;23.89;67.14;99598.56;4351718;33;33904;-96
2023/08/21 03:34:58;;;;;;;18.17;16.15;;;;;;;23.94;66.93;99601.91;4350421;33;33958;-96
2023/08/21 03:37:25;;;;;;;17.67;15.93;;;;;;;23.84;67.41;99603.16;4350301;33;33547;-86
2023/08/21 03:39:53;;;;;;;18.48;16.30;;;;;;;23.84;67.51;99597.87;4348272;33;33030;-84
2023/08/21 03:42:21;;;;;;;17.62;15.52;;;;;;;23.88;67.53;99603.00;4346554;33;34759;-84
2023/08/21 03:44:50;;;;;;;17.10;15.30;;;;;;;23.85;67.73;99607.53;4347065;33;33582;-93
2023/08/21 03:47:18;;;;;;;19.00;14.80;;;;;;;23.88;67.88;99608.31;4345624;32;34081;-91
2023/08/21 03:49:48;;;;;;;17.02;15.23;;;;;;;23.92;68.12;99609.06;4358725;32;33757;-92
2023/08/21 03:52:16;;;;;;;17.52;15.18;;;;;;;23.91;68.24;99597.59;4355206;32;32674;-85
2023/08/21 03:54:44;;;;;;;18.33;15.43;;;;;;;23.95;68.23;99598.38;4359454;32;33844;-82
2023/08/21 03:57:11;;;;;;;17.80;15.00;;;;;;;24.03;67.98;99606.91;4353651;32;36545;-83
2023/08/21 03:59:39;;;;;;;16.60;14.93;;;;;;;24.01;68.22;99599.00;4356312;32;34604;-94
2023/08/21 04:02:06;;;;;;;17.20;14.73;;;;;;;24.04;68.01;99598.03;4358602;32;34779;-83
2023/08/21 04:04:35;;;;;;;16.80;15.00;;;;;;;24.12;67.44;99601.25;4362128;32;34073;-93
2023/08/21 04:07:03;;;;;;;16.15;14.07;;;;;;;24.13;67.70;99597.72;4361606;32;34007;-83
2023/08/21 04:09:30;;;;;;;17.12;14.25;;;;;;;24.16;67.53;99610.81;4361563;32;33359;-94
2023/08/21 04:11:58;;;;;;;15.38;13.07;;;;;;;24.14;67.76;99599.44;4361241;32;33998;-92
2023/08/21 04:14:25;;;;;;;16.00;14.35;;;;;;;24.14;68.14;99607.38;4354382;32;34969;-83
2023/08/21 04:16:53;;;;;;;15.73;14.02;;;;;;;24.24;67.64;99600.84;4346778;33;33824;-93
2023/08/21 04:19:21;;;;;;;16.77;14.52;;;;;;;24.22;68.05;99607.13;4358149;32;33465;-82
2023/08/21 04:21:48;;;;;;;18.87;14.43;;;;;;;24.21;68.28;99600.94;4360731;32;34734;-83
2023/08/21 04:24:15;;;;;;;16.62;14.77;;;;;;;24.24;68.34;99606.16;4361091;32;34645;-82
2023/08/21 04:26:43;;;;;;;16.77;14.23;;;;;;;24.29;68.57;99595.38;4349809;32;34022;-82
2023/08/21 04:29:11;;;;;;;15.82;14.20;;;;;;;24.41;68.45;99607.34;4354084;32;34564;-82
2023/08/21 04:31:38;;;;;;;29.15;14.98;;;;;;;24.57;68.07;99603.19;4352093;32;33792;-80
2023/08/21 04:34:07;;;;;;;18.77;14.40;;;;;;;24.80;67.69;99604.09;4349633;32;34275;-82
2023/08/21 04:36:34;;;;;;;17.00;13.25;;;;;;;24.99;67.25;99605.97;4346306;33;34547;-82
2023/08/21 04:39:02;;;;;;;16.33;12.52;;;;;;;25.27;66.34;99610.25;4345223;32;33729;-83
2023/08/21 04:41:30;;;;;;;14.23;12.80;;;;;;;25.46;65.14;99610.34;4346457;33;33857;-83
2023/08/21 04:43:57;;;;;;;15.07;13.38;;;;;;;25.51;65.29;99618.97;4344997;32;35036;-85
2023/08/21 04:46:25;;;;;;;17.17;13.30;;;;;;;25.60;65.58;99621.25;4346692;32;32899;-82
2023/08/21 04:48:54;;;;;;;16.25;13.70;;;;;;;25.75;65.24;99617.06;4348903;32;34319;-82
2023/08/21 04:51:21;;;;;;;15.20;13.07;;;;;;;26.17;62.92;99609.06;4348831;32;34185;-82
2023/08/21 04:53:49;;;;;;;15.35;12.37;;;;;;;26.68;62.02;99609.50;4354333;32;34901;-84
2023/08/21 04:56:17;;;;;;;16.35;12.48;;;;;;;27.11;60.40;99608.34;4356778;32;33645;-81
2023/08/21 04:58:45;;;;;;;14.63;12.37;;;;;;;27.34;59.85;99615.22;4357154;32;33601;-83
2023/08/21 05:01:12;;;;;;;14.07;12.15;;;;;;;27.44;58.84;99617.44;4352774;32;33648;-83
2023/08/21 05:03:43;;;;;;;13.75;11.50;;;;;;;27.84;57.88;99618.97;4348447;32;34873;-83
2023/08/21 05:06:11;;;;;;;14.18;12.23;;;;;;;28.09;57.39;99621.25;4359994;32;34335;-92
2023/08/21 05:08:39;;;;;;;13.07;10.70;;;;;;;28.33;56.69;99625.28;4356481;32;32735;-91
2023/08/21 05:11:07;;;;;;;12.25;10.98;;;;;;;28.55;56.23;99625.03;4366598;32;34769;-91
2023/08/21 05:13:36;;;;;;;12.00;10.68;;;;;;;28.62;55.95;99618.44;4360409;32;35056;-84
2023/08/21 05:16:04;;;;;;;15.75;10.63;;;;;;;28.76;55.68;99619.50;4361172;32;33962;-84
2023/08/21 05:18:32;;;;;;;12.02;10.32;;;;;;;28.76;55.27;99616.81;4360593;32;33411;-92
2023/08/21 05:21:00;;;;;;;11.98;10.77;;;;;;;28.81;55.04;99623.62;4355481;32;34715;-83
2023/08/21 05:23:28;;;;;;;13.57;10.50;;;;;;;28.92;54.78;99619.50;4347221;32;34075;-82
2023/08/21 05:25:56;;;;;;;13.18;10.32;;;;;;;29.04;54.39;99625.03;4352260;32;34579;-85
2023/08/21 05:28:24;;;;;;;16.75;10.63;;;;;;;29.13;54.19;99620.13;4349072;32;33559;-85
2023/08/21 05:30:51;;;;;;;14.65;11.12;;;;;;;29.53;53.82;99622.25;4346128;32;33876;-85
2023/08/21 05:33:19;;;;;;;11.40;10.25;;;;;;;29.35;53.32;99628.63;4351614;32;34628;-84
2023/08/21 05:35:47;;;;;;;11.75;10.55;;;;;;;29.30;53.57;99626.25;4357069;32;33895;-82
2023/08/21 05:38:15;;;;;;;12.35;11.00;;;;;;;29.34;53.63;99634.94;4350398;32;34167;-83
2023/08/21 05:40:43;;;;;;;12.27;10.95;;;;;;;29.65;53.68;99633.19;4348301;32;34196;-83
2023/08/21 05:43:10;;;;;;;13.10;10.90;;;;;;;29.31;53.65;99643.13;4357863;32;34086;-86
2023/08/21 05:45:38;;;;;;;11.32;10.13;;;;;;;29.31;53.97;99637.78;4351442;32;34207;-83
2023/08/21 05:48:05;;;;;;;13.38;11.55;;;;;;;29.24;54.28;99641.75;4346640;32;34335;-83
2023/08/21 05:50:36;;;;;;;11.88;10.45;;;;;;;29.37;54.19;99648.13;4346210;32;33132;-96
2023/08/21 05:53:04;;;;;;;11.80;10.50;;;;;;;29.13;55.02;99644.16;4348519;32;34236;-84
2023/08/21 05:55:32;;;;;;;12.00;10.70;;;;;;;29.30;54.92;99652.09;4352530;32;33645;-87
2023/08/21 05:58:00;;;;;;;13.35;10.13;;;;;;;29.34;54.99;99651.81;4351986;32;33953;-88
2023/08/21 06:00:27;;;;;;;12.55;10.68;;;;;;;29.12;55.44;99648.63;4345966;32;33738;-81
2023/08/21 06:02:56;;;;;;;13.38;11.35;;;;;;;28.93;55.17;99648.75;4352548;32;34101;-82
2023/08/21 06:05:25;;;;;;;12.63;11.27;;;;;;;28.86;55.98;99650.03;4360869;32;33750;-81
2023/08/21 06:07:52;;;;;;;14.55;11.60;;;;;;;28.80;56.77;99655.75;4359285;32;33546;-83
2023/08/21 06:10:20;;;;;;;12.73;11.20;;;;;;;28.85;55.95;99651.00;4362352;32;34657;-91
2023/08/21 06:12:48;;;;;;;12.07;10.88;;;;;;;28.90;56.82;99653.41;4360813;32;35172;-84
2023/08/21 06:15:15;;;;;;;13.00;11.43;;;;;;;28.74;55.92;99654.25;4362514;32;33963;-84
2023/08/21 06:17:43;;;;;;;12.00;10.80;;;;;;;28.71;56.00;99658.87;4360973;32;33719;-82
2023/08/21 06:20:11;;;;;;;13.27;11.23;;;;;;;28.94;52.81;99650.47;4349926;32;33919;-85
2023/08/21 06:22:38;;;;;;;15.32;11.63;;;;;;;28.67;56.16;99652.00;4345831;33;35092;-83
2023/08/21 06:25:08;;;;;;;16.20;12.15;;;;;;;28.91;55.13;99650.69;4345618;33;33960;-92
2023/08/21 06:27:36;;;;;;;15.60;12.18;;;;;;;28.54;56.35;99660.66;4348503;32;34357;-89
2023/08/21 06:30:22;;;;;;;12.48;11.18;;;;;;;28.81;56.92;99652.97;4346998;33;34423;-96
2023/08/21 06:32:50;;;;;;;14.40;11.12;;;;;;;28.81;55.51;99660.13;4345636;33;34977;-86
2023/08/21 06:35:18;;;;;;;15.65;12.30;;;;;;;28.92;57.05;99660.41;4345762;33;34451;-96
2023/08/21 06:37:45;;;;;;;13.48;11.52;;;;;;;28.92;53.38;99651.53;4356345;32;33501;-83
2023/08/21 06:40:13;;;;;;;13.20;11.68;;;;;;;28.73;53.08;99662.34;4361376;32;33689;-84
2023/08/21 06:42:41;;;;;;;13.82;12.37;;;;;;;28.64;56.21;99660.16;4360299;32;34886;-94
2023/08/21 06:45:08;;;;;;;12.52;11.23;;;;;;;28.88;53.84;99663.31;4360862;32;34028;-84
2023/08/21 06:47:37;;;;;;;13.27;11.98;;;;;;;28.88;53.47;99666.84;4351972;32;33187;-83
2023/08/21 06:50:05;;;;;;;13.73;11.70;;;;;;;28.86;53.49;99666.91;4347430;32;33931;-95
2023/08/21 06:52:33;;;;;;;17.80;12.52;;;;;;;28.89;53.80;99663.22;4345242;32;35143;-84
2023/08/21 06:55:00;;;;;;;16.35;12.37;;;;;;;28.94;53.49;99657.63;4345590;33;34131;-84
2023/08/21 06:57:28;;;;;;;13.70;12.30;;;;;;;29.19;52.42;99654.50;4354921;32;33559;-85
2023/08/21 06:59:55;;;;;;;12.80;11.35;;;;;;;29.21;53.53;99663.28;4368407;32;34093;-84
2023/08/21 07:02:23;;;;;;;13.52;11.80;;;;;;;29.29;53.53;99663.72;4368803;32;34635;-84
2023/08/21 07:04:51;;;;;;;13.30;12.00;;;;;;;29.22;52.30;99660.53;4369029;32;33512;-83
2023/08/21 07:07:18;;;;;;;13.07;11.65;;;;;;;29.31;53.27;99653.81;4369962;32;34367;-84
2023/08/21 07:09:46;;;;;;;14.35;11.98;;;;;;;29.63;51.27;99654.69;4370880;32;34129;-85
2023/08/21 07:12:13;;;;;;;16.92;11.50;;;;;;;29.65;51.84;99657.25;4373016;32;34573;-84
2023/08/21 07:14:41;;;;;;;13.40;11.55;;;;;;;29.64;52.18;99652.88;4369885;32;34768;-85
2023/08/21 07:17:09;;;;;;;15.25;11.20;;;;;;;29.74;53.35;99662.06;4371032;32;34489;-84
2023/08/21 07:19:36;;;;;;;14.27;11.30;;;;;;;30.01;50.98;99660.44;4368804;32;33343;-83
2023/08/21 07:22:03;;;;;;;15.45;11.60;;;;;;;30.32;49.32;99650.59;4368325;32;33911;-90
2023/08/21 07:24:31;;;;;;;18.52;10.63;;;;;;;30.17;51.08;99655.06;4365426;32;34106;-85
2023/08/21 07:26:59;;;;;;;14.15;10.10;;;;;;;30.19;48.87;99652.28;4363877;32;33880;-91
2023/08/21 07:29:26;;;;;;;11.43;10.00;;;;;;;29.96;49.25;99651.81;4364080;32;34184;-92
2023/08/21 07:31:54;;;;;;;12.80;9.90;;;;;;;30.11;48.64;99649.19;4364479;32;35038;-83
2023/08/21 07:34:21;;;;;;;11.38;9.43;;;;;;;30.61;48.27;99643.47;4363881;32;33984;-95
2023/08/21 07:36:49;;;;;;;12.65;10.02;;;;;;;31.08;48.62;99649.47;4359669;32;33431;-84
2023/08/21 07:39:17;;;;;;;15.13;10.63;;;;;;;31.04;47.01;99650.63;4349493;33;34027;-85
2023/08/21 07:41:44;;;;;;;13.18;10.38;;;;;;;31.25;45.90;99646.53;4353352;32;32658;-88
2023/08/21 07:44:12;;;;;;;12.30;10.18;;;;;;;30.88;45.38;99646.25;4352182;32;33518;-84
2023/08/21 07:46:39;;;;;;;12.30;9.95;;;;;;;30.98;46.92;99654.53;4347840;33;34458;-94
2023/08/21 07:49:07;;;;;;;15.65;10.50;;;;;;;31.12;46.57;99657.19;4351426;33;34884;-84
2023/08/21 07:51:35;;;;;;;12.15;10.07;;;;;;;31.10;49.58;99658.22;4353319;33;35041;-84
2023/08/21 07:54:03;;;;;;;12.55;11.00;;;;;;;31.44;46.13;99660.50;4352733;32;33773;-85
2023/08/21 07:56:31;;;;;;;13.62;10.35;;;;;;;31.42;48.66;99661.56;4353613;33;34016;-83
2023/08/21 07:58:58;;;;;;;12.80;10.88;;;;;;;31.35;46.99;99658.41;4352930;33;34020;-83
2023/08/21 08:01:26;;;;;;;13.18;10.13;;;;;;;31.50;46.14;99659.22;4353378;33;35089;-84
2023/08/21 08:03:54;;;;;;;12.27;10.10;;;;;;;31.68;46.94;99663.38;4349451;33;33738;-84
2023/08/21 08:06:23;;;;;;;11.38;10.15;;;;;;;31.36;43.64;99654.75;4351815;33;34604;-86
2023/08/21 08:08:50;;;;;;;11.20;10.00;;;;;;;30.98;45.20;99659.88;4355949;33;33990;-83
2023/08/21 08:11:18;;;;;;;12.10;10.10;;;;;;;31.32;44.77;99655.06;4353438;32;34392;-84
2023/08/21 08:13:45;;;;;;;12.48;9.95;;;;;;;31.40;45.83;99663.47;4353397;32;35039;-83
2023/08/21 08:16:13;;;;;;;12.20;10.13;;;;;;;31.83;44.02;99657.94;4346667;32;33799;-85
2023/08/21 08:18:41;;;;;;;12.27;9.32;;;;;;;31.71;45.74;99659.63;4346603;32;34144;-82
2023/08/21 08:21:09;;;;;;;11.52;10.20;;;;;;;31.70;42.72;99655.22;4346017;32;35029;-89
2023/08/21 08:23:36;;;;;;;12.25;10.00;;;;;;;31.81;43.03;99658.03;4346205;32;33798;-82
2023/08/21 08:26:04;;;;;;;11.75;9.75;;;;;;;31.46;44.09;99655.88;4345592;33;33265;-81
2023/08/21 08:28:31;;;;;;;11.63;9.25;;;;;;;31.68;44.33;99658.00;4345989;32;33651;-85
2023/08/21 08:31:00;;;;;;;14.27;11.20;;;;;;;31.79;44.11;99659.97;4354868;32;34122;-90
2023/08/21 08:33:28;;;;;;;12.23;9.07;;;;;;;32.22;42.94;99659.75;4347203;32;33768;-81
2023/08/21 08:35:55;;;;;;;11.93;9.55;;;;;;;32.01;43.74;99663.91;4354565;32;34325;-82
2023/08/21 08:38:23;;;;;;;21.52;10.43;;;;;;;32.12;42.76;99655.97;4346135;33;34737;-85
2023/08/21 08:40:52;;;;;;;11.60;9.07;;;;;;;31.94;42.09;99660.78;4351212;32;34450;-81
2023/08/21 08:43:21;;;;;;;12.82;9.45;;;;;;;32.35;43.45;99663.31;4347537;33;34464;-82
2023/08/21 08:45:49;;;;;;;12.93;9.85;;;;;;;31.98;42.09;99659.63;4346611;32;32937;-86
2023/08/21 08:48:17;;;;;;;10.80;8.70;;;;;;;32.34;42.52;99661.59;4345188;33;34952;-82
2023/08/21 08:50:45;;;;;;;10.68;9.07;;;;;;;32.27;41.98;99665.66;4345811;32;33761;-83
2023/08/21 08:53:13;;;;;;;12.60;9.40;;;;;;;32.12;40.58;99662.19;4344757;33;34155;-83
2023/08/21 08:55:44;;;;;;;11.70;10.00;;;;;;;32.26;40.92;99668.44;4345743;33;33308;-94
2023/08/21 08:58:12;;;;;;;12.00;9.77;;;;;;;32.18;43.86;99674.34;4354432;32;33848;-83
2023/08/21 09:00:40;;;;;;;12.18;9.65;;;;;;;32.52;42.74;99669.34;4350724;32;32711;-83
2023/08/21 09:03:10;;;;;;;12.40;10.07;;;;;;;32.55;43.12;99666.47;4353690;32;34278;-85
2023/08/21 09:05:40;;;;;;;12.45;9.60;;;;;;;32.66;43.49;99666.56;4360773;32;33220;-82
2023/08/21 09:08:08;;;;;;;11.75;9.77;;;;;;;32.70;41.33;99666.25;4350262;32;33960;-91
2023/08/21 09:10:37;;;;;;;10.57;9.48;;;;;;;31.98;40.53;99673.03;4352761;32;34228;-80
2023/08/21 09:13:16;;;;;;;13.73;10.25;;;;;;;32.11;39.90;99670.38;4350373;32;33394;-92
2023/08/21 09:15:49;;;;;;;11.65;9.45;;;;;;;32.39;43.08;99675.56;4358593;32;34365;-86
2023/08/21 09:18:16;;;;;;;12.90;10.10;;;;;;;32.64;41.01;99668.50;4346237;32;34314;-88
2023/08/21 09:20:44;;;;;;;11.45;9.70;;;;;;;32.54;41.08;99667.41;4360403;32;34151;-93
2023/08/21 09:23:16;;;;;;;12.68;9.85;;;;;;;32.75;42.06;99662.38;4347678;32;34005;-82
2023/08/21 09:25:48;;;;;;;11.05;9.52;;;;;;;32.53;39.11;99671.06;4375601;32;34189;-89
2023/08/21 09:28:20;;;;;;;12.07;10.07;;;;;;;32.33;40.97;99659.88;4376857;32;33627;-83
2023/08/21 09:30:54;;;;;;;12.00;9.45;;;;;;;32.61;41.94;99653.44;4362186;32;35011;-83
2023/08/21 09:33:23;;;;;;;11.95;10.43;;;;;;;32.62;43.04;99655.19;4361022;32;34072;-82
2023/08/21 09:35:52;;;;;;;12.68;9.98;;;;;;;32.83;41.17;99652.78;4348165;32;33707;-81
2023/08/21 09:38:20;;;;;;;11.12;9.82;;;;;;;32.59;40.05;99652.72;4356487;32;34735;-88
2023/08/21 09:40:52;;;;;;;11.63;9.68;;;;;;;32.68;43.77;99654.72;4358143;32;33900;-82
2023/08/21 09:43:25;;;;;;;11.52;10.20;;;;;;;32.58;40.97;99650.13;4354213;32;33816;-84
2023/08/21 09:45:55;;;;;;;13.07;9.80;;;;;;;32.60;43.35;99642.84;4344160;33;34333;-83
2023/08/21 09:48:27;;;;;;;12.52;9.95;;;;;;;32.90;41.87;99643.31;4345406;33;33973;-85
2023/08/21 09:50:55;;;;;;;12.23;9.60;;;;;;;32.88;39.88;99637.22;4345900;33;33658;-85
2023/08/21 09:53:23;;;;;;;11.02;8.32;;;;;;;32.91;39.74;99639.66;4345071;33;34949;-84
2023/08/21 09:56:03;;;;;;;11.20;8.05;;;;;;;33.03;37.30;99640.63;4346457;32;34440;-84
2023/08/21 09:58:31;;;;;;;14.27;9.68;;;;;;;32.83;36.77;99642.03;4356220;32;34125;-94
2023/08/21 10:01:00;;;;;;;11.32;8.82;;;;;;;32.58;39.05;99647.44;4359876;32;34784;-96
2023/08/21 10:03:29;;;;;;;9.82;8.25;;;;;;;32.58;39.44;99639.38;4374718;32;34020;-87
2023/08/21 10:05:58;;;;;;;12.18;9.20;;;;;;;32.81;39.39;99633.25;4356194;32;33091;-84
2023/08/21 10:08:26;;;;;;;10.30;8.55;;;;;;;32.97;40.10;99626.81;4349320;32;34043;-84
2023/08/21 10:10:55;;;;;;;12.43;8.88;;;;;;;33.13;38.77;99632.75;4345982;32;34103;-93
2023/08/21 10:13:22;;;;;;;10.48;9.25;;;;;;;33.13;38.99;99635.44;4344439;33;33738;-83
2023/08/21 10:15:50;;;;;;;11.90;9.30;;;;;;;33.11;38.88;99629.31;4357895;32;33135;-92
2023/08/21 10:18:23;;;;;;;10.65;9.55;;;;;;;33.01;38.95;99622.91;4355119;32;34203;-95
2023/08/21 10:20:52;;;;;;;11.38;9.52;;;;;;;33.32;37.62;99625.06;4351202;32;33696;-88
2023/08/21 10:23:28;;;;;;;12.18;9.90;;;;;;;33.21;39.20;99624.12;4360160;32;33885;-87
2023/08/21 10:26:00;;;;;;;12.95;9.10;;;;;;;33.29;38.77;99619.06;4347156;32;33241;-90
2023/08/21 10:28:43;;;;;;;11.85;10.05;;;;;;;33.40;40.03;99624.47;4351571;32;33259;-93
2023/08/21 10:31:34;;;;;;;10.77;9.40;;;;;;;33.50;42.13;99620.19;4346576;32;33084;-87
2023/08/21 10:34:11;;;;;;;13.50;9.77;;;;;;;33.53;44.17;99628.03;4359158;32;33827;-91
2023/08/21 10:36:44;;;;;;;10.68;9.57;;;;;;;33.45;44.71;99626.81;4358690;32;34191;-92
2023/08/21 10:39:22;;;;;;;10.25;8.93;;;;;;;33.47;43.47;99623.09;4359886;32;33532;-84
2023/08/21 10:41:55;;;;;;;12.75;9.50;;;;;;;33.52;39.54;99618.22;4367029;32;33567;-91
2023/08/21 10:44:42;;;;;;;12.18;9.20;;;;;;;33.64;42.33;99617.31;4350894;32;33454;-90
2023/08/21 10:47:17;;;;;;;12.82;9.02;;;;;;;33.79;41.90;99617.09;4357398;32;33119;-92
2023/08/21 10:49:49;;;;;;;;;;;;;;;33.67;39.77;99617.06;4353527;32;34758;-94
2023/08/21 10:52:37;;;;;;;10.40;9.30;;;;;;;33.91;41.03;99618.88;4344982;32;33948;-91
2023/08/21 10:55:06;;;;;;;12.25;9.70;;;;;;;33.58;37.96;99608.84;4346591;32;33931;-93
2023/08/21 10:57:34;;;;;;;11.80;10.60;;;;;;;33.64;42.07;99616.44;4353260;32;33171;-89
2023/08/21 11:00:09;;;;;;;13.23;10.55;;;;;;;33.76;40.35;99612.84;4351811;32;34141;-87
2023/08/21 11:02:39;;;;;;;13.15;10.02;;;;;;;33.82;42.20;99614.19;4344720;32;33916;-90
2023/08/21 11:05:08;;;;;;;15.00;9.52;;;;;;;33.75;42.66;99607.56;4345191;32;33895;-85
2023/08/21 11:07:39;;;;;;;12.45;9.25;;;;;;;33.81;39.18;99607.09;4344063;32;33853;-90
2023/08/21 11:10:11;;;;;;;11.27;9.13;;;;;;;33.87;37.36;99607.50;4365246;32;34139;-89
2023/08/21 11:12:56;;;;;;;10.40;9.30;;;;;;;33.73;38.06;99598.75;4353013;32;35084;-85
2023/08/21 11:15:27;;;;;;;11.27;9.75;;;;;;;33.85;37.44;99598.66;4330810;33;34387;-88
2023/08/21 11:18:02;;;;;;;11.30;9.50;;;;;;;33.58;39.03;99606.16;4369595;32;33410;-90
2023/08/21 11:20:33;;;;;;;;;;;;;;;33.67;37.99;99603.59;4345315;32;34435;-83
2023/08/21 11:23:08;;;;;;;12.20;9.95;;;;;;;34.01;36.63;99597.50;4342867;33;34411;-85
2023/08/21 11:25:40;;;;;;;11.27;9.73;;;;;;;33.87;41.11;99596.72;4360775;32;34112;-85
2023/08/21 11:28:08;;;;;;;13.02;8.90;;;;;;;33.98;42.28;99603.09;4349417;32;34313;-91